createdAt,value
2023-02-12T00:00:13.918Z,102489.81
2023-02-12T00:02:41.455Z,102501.47
2023-02-12T00:05:10.723Z,102495.88
2023-02-12T00:07:37.843Z,102495.59
2023-02-12T00:10:05.834Z,102496.44
2023-02-12T00:12:33.145Z,102501.50
2023-02-12T00:15:00.409Z,102498.63
2023-02-12T00:17:27.718Z,102499.19
2023-02-12T00:19:55.629Z,102507.28
2023-02-12T00:22:24.816Z,102504.34
2023-02-12T00:24:52.186Z,102502.38
2023-02-12T00:27:19.881Z,102504.09
2023-02-12T00:29:47.079Z,102499.19
2023-02-12T00:32:14.514Z,102499.03
2023-02-12T00:34:42.169Z,102501.50
2023-02-12T00:37:09.635Z,102500.63
2023-02-12T00:39:38.827Z,102496.28
2023-02-12T00:42:06.509Z,102503.69
2023-02-12T00:44:34.111Z,102489.56
2023-02-12T00:47:01.454Z,102493.78
2023-02-12T00:49:29.323Z,102481.28
2023-02-12T00:51:57.089Z,102486.06
2023-02-12T00:54:24.271Z,102476.50
2023-02-12T00:56:53.176Z,102484.09
2023-02-12T00:59:20.538Z,102481.03
2023-02-12T01:01:48.269Z,102482.06
2023-02-12T01:04:16.631Z,102480.03
2023-02-12T01:06:44.286Z,102471.13
2023-02-12T01:09:11.672Z,102474.88
2023-02-12T01:11:39.365Z,102469.53
2023-02-12T01:14:08.746Z,102463.97
2023-02-12T01:16:36.819Z,102455.47
2023-02-12T01:19:05.773Z,102473.16
2023-02-12T01:21:35.571Z,102461.25
2023-02-12T01:24:03.290Z,102457.19
2023-02-12T01:26:31.868Z,102457.19
2023-02-12T01:29:01.257Z,102463.66
2023-02-12T01:31:32.503Z,102465.19
2023-02-12T01:34:01.110Z,102470.41
2023-02-12T01:36:29.776Z,102460.47
2023-02-12T01:38:57.827Z,102454.78
2023-02-12T01:41:27.506Z,102462.97
2023-02-12T01:44:17.248Z,102461.66
2023-02-12T01:46:47.196Z,102455.66
2023-02-12T01:49:19.207Z,102463.69
2023-02-12T01:51:49.070Z,102465.63
2023-02-12T01:54:19.844Z,102458.69
2023-02-12T01:56:47.700Z,102455.97
2023-02-12T01:59:15.381Z,102458.22
2023-02-12T02:01:43.216Z,102458.69
2023-02-12T02:04:15.541Z,102444.56
2023-02-12T02:06:49.928Z,102454.16
2023-02-12T02:09:19.849Z,102453.09
2023-02-12T02:11:47.249Z,102454.53
2023-02-12T02:14:14.863Z,102464.06
2023-02-12T02:16:47.623Z,102461.81
2023-02-12T02:19:31.307Z,102460.97
2023-02-12T02:22:16.973Z,102453.47
2023-02-12T02:25:18.069Z,102459.44
2023-02-12T02:27:56.985Z,102457.41
2023-02-12T02:30:34.837Z,102456.13
2023-02-12T02:33:16.074Z,102453.84
2023-02-12T02:35:53.454Z,102446.97
2023-02-12T02:38:34.360Z,102447.91
2023-02-12T02:41:09.043Z,102445.84
2023-02-12T02:43:41.323Z,102448.41
2023-02-12T02:46:16.736Z,102447.94
2023-02-12T02:48:49.742Z,102445.97
2023-02-12T02:51:21.798Z,102446.63
2023-02-12T02:53:55.029Z,102453.28
2023-02-12T02:56:24.759Z,102444.75
2023-02-12T02:58:57.656Z,102446.09
2023-02-12T03:01:31.601Z,102443.19
2023-02-12T03:04:03.735Z,102447.47
2023-02-12T03:06:36.297Z,102447.75
2023-02-12T03:09:10.337Z,102459.19
2023-02-12T03:11:37.926Z,102443.47
2023-02-12T03:14:11.822Z,102448.72
2023-02-12T03:16:48.638Z,102458.22
2023-02-12T03:19:19.967Z,102457.25
2023-02-12T03:21:51.082Z,102451.59
2023-02-12T03:24:24.391Z,102459.94
2023-02-12T03:27:00.019Z,102458.06
2023-02-12T03:29:27.796Z,102457.78
2023-02-12T03:32:11.340Z,102451.84
2023-02-12T03:34:48.580Z,102451.91
2023-02-12T03:37:22.089Z,102454.63
2023-02-12T03:39:57.666Z,102452.53
2023-02-12T03:42:35.781Z,102451.94
2023-02-12T03:45:09.007Z,102447.00
2023-02-12T03:47:45.478Z,102447.06
2023-02-12T03:50:17.987Z,102443.31
2023-02-12T03:52:46.861Z,102448.00
2023-02-12T03:55:14.887Z,102441.94
2023-02-12T03:57:45.569Z,102451.53
2023-02-12T04:00:16.372Z,102444.19
2023-02-12T04:02:46.282Z,102443.88
2023-02-12T04:05:19.038Z,102440.28
2023-02-12T04:07:46.797Z,102444.97
2023-02-12T04:10:14.887Z,102445.56
2023-02-12T04:12:52.690Z,102444.59
2023-02-12T04:15:39.070Z,102452.94
2023-02-12T04:18:16.081Z,102452.34
2023-02-12T04:20:53.605Z,102448.94
2023-02-12T04:23:40.093Z,102452.25
2023-02-12T04:26:15.078Z,102452.69
2023-02-12T04:28:52.944Z,102445.88
2023-02-12T04:31:30.578Z,102445.41
2023-02-12T04:34:09.069Z,102440.38
2023-02-12T04:36:48.338Z,102438.88
2023-02-12T04:39:22.048Z,102454.19
2023-02-12T04:41:49.895Z,102449.16
2023-02-12T04:44:19.799Z,102450.03
2023-02-12T04:46:47.303Z,102447.84
2023-02-12T04:49:17.456Z,102447.00
2023-02-12T04:51:46.245Z,102452.03
2023-02-12T04:54:14.438Z,102459.50
2023-02-12T04:56:41.786Z,102454.34
2023-02-12T04:59:09.260Z,102453.78
2023-02-12T05:01:38.624Z,102463.88
2023-02-12T05:04:07.018Z,102454.50
2023-02-12T05:06:38.767Z,102444.94
2023-02-12T05:09:07.021Z,102450.22
2023-02-12T05:11:34.199Z,102456.06
2023-02-12T05:14:01.558Z,102458.63
2023-02-12T05:16:28.858Z,102449.72
2023-02-12T05:18:56.053Z,102442.25
2023-02-12T05:21:23.668Z,102448.41
2023-02-12T05:23:52.526Z,102453.16
2023-02-12T05:26:21.547Z,102452.88
2023-02-12T05:28:49.249Z,102446.22
2023-02-12T05:31:21.511Z,102452.88
2023-02-12T05:33:50.012Z,102455.41
2023-02-12T05:36:18.604Z,102446.22
2023-02-12T05:38:46.436Z,102456.63
2023-02-12T05:41:17.134Z,102446.16
2023-02-12T05:43:46.596Z,102437.97
2023-02-12T05:46:16.041Z,102443.13
2023-02-12T05:48:43.463Z,102445.91
2023-02-12T05:51:13.157Z,102442.44
2023-02-12T05:53:41.502Z,102438.28
2023-02-12T05:56:12.059Z,102439.66
2023-02-12T05:58:42.981Z,102443.56
2023-02-12T06:01:13.183Z,102437.66
2023-02-12T06:03:40.405Z,102432.69
2023-02-12T06:06:08.301Z,102436.84
2023-02-12T06:08:35.740Z,102436.13
2023-02-12T06:11:04.551Z,102440.69
2023-02-12T06:13:32.685Z,102439.13
2023-02-12T06:16:01.717Z,102436.16
2023-02-12T06:18:29.288Z,102437.81
2023-02-12T06:20:56.703Z,102443.13
2023-02-12T06:23:25.780Z,102440.00
2023-02-12T06:25:57.600Z,102436.53
2023-02-12T06:28:24.832Z,102441.00
2023-02-12T06:30:52.424Z,102430.47
2023-02-12T06:33:21.749Z,102441.31
2023-02-12T06:35:49.046Z,102444.50
2023-02-12T06:38:16.631Z,102438.47
2023-02-12T06:40:44.249Z,102441.34
2023-02-12T06:43:11.880Z,102442.06
2023-02-12T06:45:38.792Z,102440.19
2023-02-12T06:48:06.682Z,102438.47
2023-02-12T06:50:34.861Z,102441.00
2023-02-12T06:53:02.182Z,102444.94
2023-02-12T06:55:29.385Z,102449.81
2023-02-12T06:57:56.807Z,102447.25
2023-02-12T07:00:24.084Z,102455.72
2023-02-12T07:02:55.372Z,102457.41
2023-02-12T07:05:24.125Z,102452.50
2023-02-12T07:07:53.280Z,102452.63
2023-02-12T07:10:20.429Z,102453.00
2023-02-12T07:12:48.767Z,102455.38
2023-02-12T07:15:16.320Z,102459.44
2023-02-12T07:17:43.844Z,102468.19
2023-02-12T07:20:12.134Z,102462.31
2023-02-12T07:22:39.451Z,102467.53
2023-02-12T07:25:08.673Z,102461.63
2023-02-12T07:27:37.663Z,102465.81
2023-02-12T07:30:05.709Z,102466.38
2023-02-12T07:32:32.972Z,102460.78
2023-02-12T07:35:00.735Z,102466.25
2023-02-12T07:37:28.081Z,102468.88
2023-02-12T07:39:55.355Z,102463.41
2023-02-12T07:42:24.266Z,102470.59
2023-02-12T07:44:51.404Z,102472.13
2023-02-12T07:47:18.780Z,102465.22
2023-02-12T07:49:46.143Z,102462.66
2023-02-12T07:52:13.590Z,102460.63
2023-02-12T07:54:41.043Z,102457.59
2023-02-12T07:57:08.355Z,102460.19
2023-02-12T07:59:37.249Z,102467.66
2023-02-12T08:02:04.733Z,102464.34
2023-02-12T08:04:32.104Z,102466.59
2023-02-12T08:06:59.285Z,102460.44
2023-02-12T08:09:28.293Z,102462.19
2023-02-12T08:11:55.783Z,102461.75
2023-02-12T08:14:23.726Z,102466.06
2023-02-12T08:16:52.955Z,102460.44
2023-02-12T08:19:23.984Z,102463.41
2023-02-12T08:21:54.931Z,102461.22
2023-02-12T08:24:22.448Z,102466.31
2023-02-12T08:26:50.398Z,102469.88
2023-02-12T08:29:20.526Z,102469.09
2023-02-12T08:31:49.566Z,102470.09
2023-02-12T08:34:21.142Z,102467.38
2023-02-12T08:36:50.543Z,102467.63
2023-02-12T08:39:18.487Z,102471.66
2023-02-12T08:41:46.334Z,102479.53
2023-02-12T08:44:14.216Z,102482.19
2023-02-12T08:46:45.492Z,102486.16
2023-02-12T08:49:14.894Z,102482.88
2023-02-12T08:51:45.749Z,102481.13
2023-02-12T08:54:14.792Z,102482.09
2023-02-12T08:56:42.814Z,102485.09
2023-02-12T08:59:12.730Z,102486.13
2023-02-12T09:01:41.207Z,102492.78
2023-02-12T09:04:09.373Z,102495.13
2023-02-12T09:06:37.000Z,102495.34
2023-02-12T09:09:06.527Z,102497.06
2023-02-12T09:11:35.671Z,102497.94
2023-02-12T09:14:06.360Z,102495.94
2023-02-12T09:16:35.818Z,102495.78
2023-02-12T09:19:03.787Z,102486.56
2023-02-12T09:21:31.433Z,102490.16
2023-02-12T09:23:58.839Z,102484.41
2023-02-12T09:26:30.434Z,102492.69
2023-02-12T09:28:58.030Z,102493.25
2023-02-12T09:31:27.249Z,102487.84
2023-02-12T09:33:55.812Z,102488.22
2023-02-12T09:36:23.074Z,102485.31
2023-02-12T09:38:50.691Z,102480.88
2023-02-12T09:41:47.269Z,102475.06
2023-02-12T09:44:23.159Z,102480.25
2023-02-12T09:46:56.002Z,102484.72
2023-02-12T09:50:01.444Z,102489.19
2023-02-12T09:52:30.701Z,102474.28
2023-02-12T09:54:59.281Z,102478.47
2023-02-12T09:57:30.626Z,102473.00
2023-02-12T10:00:03.561Z,102473.00
2023-02-12T10:02:31.150Z,102478.66
2023-02-12T10:05:01.977Z,102474.03
2023-02-12T10:08:05.746Z,102478.72
2023-02-12T10:10:47.974Z,102481.13
2023-02-12T10:13:26.038Z,102485.28
2023-02-12T10:16:06.170Z,102485.44
2023-02-12T10:18:59.885Z,102489.53
2023-02-12T10:21:42.226Z,102487.53
2023-02-12T10:24:29.617Z,102480.50
2023-02-12T10:27:01.533Z,102479.94
2023-02-12T10:29:34.805Z,102482.38
2023-02-12T10:32:07.897Z,102475.53
2023-02-12T10:34:37.308Z,102478.94
2023-02-12T10:37:12.394Z,102486.13
2023-02-12T10:39:47.921Z,102480.38
2023-02-12T10:42:19.975Z,102478.66
2023-02-12T10:44:47.805Z,102480.56
2023-02-12T10:47:20.102Z,102473.88
2023-02-12T10:49:52.692Z,102469.94
2023-02-12T10:52:35.585Z,102478.81
2023-02-12T10:55:03.120Z,102472.63
2023-02-12T10:57:31.360Z,102464.47
2023-02-12T11:00:21.129Z,102471.97
2023-02-12T11:03:02.990Z,102474.88
2023-02-12T11:05:33.833Z,102471.06
2023-02-12T11:08:01.898Z,102465.09
2023-02-12T11:10:31.784Z,102469.59
2023-02-12T11:12:59.714Z,102470.34
2023-02-12T11:15:30.137Z,102472.22
2023-02-12T11:18:04.341Z,102467.81
2023-02-12T11:20:37.994Z,102468.59
2023-02-12T11:23:07.360Z,102475.59
2023-02-12T11:25:36.340Z,102474.78
2023-02-12T11:28:15.890Z,102459.19
2023-02-12T11:30:54.945Z,102460.38
2023-02-12T11:33:29.995Z,102458.28
2023-02-12T11:36:00.700Z,102463.66
2023-02-12T11:38:32.685Z,102468.13
2023-02-12T11:41:05.221Z,102468.13
2023-02-12T11:43:35.472Z,102475.88
2023-02-12T11:46:04.989Z,102474.84
2023-02-12T11:48:38.082Z,102465.75
2023-02-12T11:51:09.318Z,102472.59
2023-02-12T11:53:41.268Z,102469.84
2023-02-12T11:56:10.744Z,102466.44
2023-02-12T11:58:39.337Z,102456.63
2023-02-12T12:01:15.124Z,102466.09
2023-02-12T12:03:54.329Z,102458.19
2023-02-12T12:06:31.906Z,102454.59
2023-02-12T12:09:07.028Z,102459.56
2023-02-12T12:11:41.537Z,102450.31
2023-02-12T12:14:17.382Z,102440.19
2023-02-12T12:16:51.353Z,102439.84
2023-02-12T12:19:29.019Z,102430.06
2023-02-12T12:22:03.838Z,102435.41
2023-02-12T12:24:39.303Z,102429.41
2023-02-12T12:27:15.214Z,102428.34
2023-02-12T12:29:51.369Z,102422.19
2023-02-12T12:32:21.516Z,102427.00
2023-02-12T12:34:50.582Z,102417.91
2023-02-12T12:37:36.049Z,102414.13
2023-02-12T12:40:25.324Z,102410.69
2023-02-12T12:43:18.684Z,102414.97
2023-02-12T12:46:07.914Z,102411.72
2023-02-12T12:48:53.179Z,102409.66
2023-02-12T12:51:40.611Z,102409.28
2023-02-12T12:54:25.479Z,102401.75
2023-02-12T12:57:02.090Z,102404.47
2023-02-12T13:00:14.161Z,102399.00
2023-02-12T13:03:15.370Z,102398.84
2023-02-12T13:06:10.534Z,102399.34
2023-02-12T13:08:57.194Z,102394.72
2023-02-12T13:11:36.818Z,102393.88
2023-02-12T13:14:15.284Z,102389.84
2023-02-12T13:16:50.176Z,102394.31
2023-02-12T13:19:29.532Z,102379.22
2023-02-12T13:22:04.650Z,102381.47
2023-02-12T13:24:41.485Z,102395.19
2023-02-12T13:27:14.912Z,102386.66
2023-02-12T13:29:47.469Z,102402.09
2023-02-12T13:32:22.591Z,102391.63
2023-02-12T13:34:53.415Z,102385.41
2023-02-12T13:37:33.722Z,102381.63
2023-02-12T13:40:05.418Z,102379.53
2023-02-12T13:42:50.292Z,102372.16
2023-02-12T13:45:27.329Z,102361.72
2023-02-12T13:48:19.855Z,102355.53
2023-02-12T13:51:00.822Z,102355.22
2023-02-12T13:53:37.282Z,102349.06
2023-02-12T13:56:19.774Z,102343.59
2023-02-12T13:58:52.333Z,102342.94
2023-02-12T14:01:46.927Z,102340.88
2023-02-12T14:04:23.189Z,102336.09
2023-02-12T14:06:58.733Z,102336.94
2023-02-12T14:09:32.792Z,102347.38
2023-02-12T14:12:04.531Z,102334.13
2023-02-12T14:14:35.606Z,102327.25
2023-02-12T14:17:42.686Z,102331.03
2023-02-12T14:20:23.930Z,102331.22
2023-02-12T14:23:13.875Z,102322.47
2023-02-12T14:25:46.033Z,102321.44
2023-02-12T14:28:32.674Z,102323.09
2023-02-12T14:31:34.318Z,102315.59
2023-02-12T14:34:44.219Z,102318.56
2023-02-12T14:37:16.952Z,102311.72
2023-02-12T14:39:44.463Z,102306.25
2023-02-12T14:42:43.369Z,102306.25
2023-02-12T14:45:42.971Z,102306.59
2023-02-12T14:48:43.656Z,102311.38
2023-02-12T14:51:20.345Z,102312.41
2023-02-12T14:53:50.000Z,102305.38
2023-02-12T14:56:21.787Z,102300.41
2023-02-12T14:58:55.161Z,102296.44
2023-02-12T15:01:32.750Z,102300.00
2023-02-12T15:04:17.814Z,102296.25
2023-02-12T15:06:53.247Z,102294.34
2023-02-12T15:09:29.732Z,102298.31
2023-02-12T15:12:05.909Z,102293.84
2023-02-12T15:14:37.545Z,102294.84
2023-02-12T15:17:11.781Z,102300.66
2023-02-12T15:19:44.257Z,102292.78
2023-02-12T15:22:24.879Z,102293.06
2023-02-12T15:24:52.609Z,102295.84
2023-02-12T15:27:21.495Z,102300.13
2023-02-12T15:29:51.405Z,102296.91
2023-02-12T15:32:25.451Z,102296.69
2023-02-12T15:34:54.109Z,102296.53
2023-02-12T15:37:25.640Z,102297.38
2023-02-12T15:39:56.346Z,102296.69
2023-02-12T15:42:37.580Z,102303.72
2023-02-12T15:45:20.549Z,102298.09
2023-02-12T15:48:02.601Z,102292.41
2023-02-12T15:50:31.724Z,102291.38
2023-02-12T15:52:59.848Z,102291.84
2023-02-12T15:55:29.650Z,102290.00
2023-02-12T15:57:59.467Z,102293.59
2023-02-12T16:00:36.396Z,102291.34
2023-02-12T16:03:05.242Z,102285.69
2023-02-12T16:05:35.126Z,102296.97
2023-02-12T16:08:03.217Z,102294.25
2023-02-12T16:10:30.624Z,102290.31
2023-02-12T16:12:58.902Z,102290.59
2023-02-12T16:15:29.960Z,102292.50
2023-02-12T16:17:58.314Z,102290.59
2023-02-12T16:20:29.497Z,102290.81
2023-02-12T16:22:57.620Z,102294.03
2023-02-12T16:25:27.052Z,102288.22
2023-02-12T16:27:59.167Z,102297.38
2023-02-12T16:30:29.810Z,102285.41
2023-02-12T16:32:58.225Z,102285.03
2023-02-12T16:35:30.912Z,102286.22
2023-02-12T16:38:04.024Z,102279.59
2023-02-12T16:40:34.411Z,102274.81
2023-02-12T16:43:21.355Z,102269.66
2023-02-12T16:45:49.403Z,102273.31
2023-02-12T16:48:20.673Z,102274.25
2023-02-12T16:50:52.792Z,102268.16
2023-02-12T16:53:40.880Z,102273.94
2023-02-12T16:56:14.168Z,102278.88
2023-02-12T16:58:41.684Z,102279.34
2023-02-12T17:01:09.133Z,102278.31
2023-02-12T17:03:37.846Z,102283.56
2023-02-12T17:06:09.621Z,102275.28
2023-02-12T17:08:36.914Z,102278.56
2023-02-12T17:11:05.524Z,102288.31
2023-02-12T17:13:32.775Z,102286.28
2023-02-12T17:16:01.113Z,102280.91
2023-02-12T17:18:29.185Z,102281.38
2023-02-12T17:20:59.567Z,102286.47
2023-02-12T17:23:29.685Z,102273.56
2023-02-12T17:25:57.380Z,102271.69
2023-02-12T17:28:24.829Z,102279.66
2023-02-12T17:30:53.300Z,102277.31
2023-02-12T17:33:20.652Z,102281.00
2023-02-12T17:35:48.186Z,102276.19
2023-02-12T17:38:15.827Z,102276.03
2023-02-12T17:40:44.883Z,102289.56
2023-02-12T17:43:12.574Z,102290.78
2023-02-12T17:45:44.120Z,102284.50
2023-02-12T17:48:12.000Z,102284.81
2023-02-12T17:50:41.341Z,102280.69
2023-02-12T17:53:10.136Z,102290.03
2023-02-12T17:55:39.148Z,102289.03
2023-02-12T17:58:08.195Z,102298.16
2023-02-12T18:00:35.842Z,102298.16
2023-02-12T18:03:03.232Z,102300.16
2023-02-12T18:05:30.497Z,102301.16
2023-02-12T18:07:58.157Z,102302.53
2023-02-12T18:10:25.135Z,102304.59
2023-02-12T18:12:52.495Z,102297.53
2023-02-12T18:15:21.316Z,102296.81
2023-02-12T18:17:48.501Z,102295.28
2023-02-12T18:20:15.545Z,102286.59
2023-02-12T18:22:42.860Z,102288.97
2023-02-12T18:25:10.081Z,102289.13
2023-02-12T18:27:37.297Z,102281.34
2023-02-12T18:30:05.847Z,102282.00
2023-02-12T18:32:36.098Z,102285.16
2023-02-12T18:35:03.661Z,102280.81
2023-02-12T18:37:31.011Z,102286.03
2023-02-12T18:39:58.393Z,102280.56
2023-02-12T18:42:25.824Z,102279.56
2023-02-12T18:44:53.412Z,102272.25
2023-02-12T18:47:20.725Z,102273.16
2023-02-12T18:49:50.016Z,102271.44
2023-02-12T18:52:17.365Z,102251.09
2023-02-12T18:54:44.820Z,102259.72
2023-02-12T18:57:12.072Z,102250.69
2023-02-12T18:59:39.428Z,102247.16
2023-02-12T19:02:07.767Z,102251.16
2023-02-12T19:04:35.151Z,102255.19
2023-02-12T19:07:04.457Z,102245.69
2023-02-12T19:09:32.309Z,102243.13
2023-02-12T19:12:00.586Z,102240.81
2023-02-12T19:14:29.057Z,102236.94
2023-02-12T19:16:56.379Z,102230.78
2023-02-12T19:19:24.203Z,102237.09
2023-02-12T19:21:51.702Z,102229.50
2023-02-12T19:24:20.837Z,102238.22
2023-02-12T19:26:51.714Z,102221.19
2023-02-12T19:29:19.597Z,102230.19
2023-02-12T19:31:47.190Z,102232.78
2023-02-12T19:34:17.270Z,102229.63
2023-02-12T19:36:44.784Z,102227.91
2023-02-12T19:39:13.926Z,102229.75
2023-02-12T19:41:43.098Z,102223.03
2023-02-12T19:44:12.225Z,102224.44
2023-02-12T19:46:40.428Z,102227.03
2023-02-12T19:49:12.075Z,102227.03
2023-02-12T19:51:39.882Z,102221.59
2023-02-12T19:54:07.002Z,102219.88
2023-02-12T19:56:35.132Z,102228.03
2023-02-12T19:59:04.392Z,102226.31
2023-02-12T20:01:31.566Z,102230.19
2023-02-12T20:03:59.953Z,102220.00
2023-02-12T20:06:29.645Z,102221.88
2023-02-12T20:08:57.007Z,102212.81
2023-02-12T20:11:26.937Z,102210.81
2023-02-12T20:13:54.677Z,102214.66
2023-02-12T20:16:24.892Z,102211.09
2023-02-12T20:18:54.094Z,102207.78
2023-02-12T20:21:24.327Z,102214.34
2023-02-12T20:23:51.914Z,102207.22
2023-02-12T20:26:21.905Z,102211.09
2023-02-12T20:28:50.285Z,102212.41
2023-02-12T20:31:20.470Z,102204.81
2023-02-12T20:33:55.126Z,102203.13
2023-02-12T20:36:23.558Z,102193.50
2023-02-12T20:38:52.970Z,102194.22
2023-02-12T20:41:21.317Z,102203.00
2023-02-12T20:43:48.957Z,102209.28
2023-02-12T20:46:18.642Z,102207.84
2023-02-12T20:48:46.545Z,102210.44
2023-02-12T20:51:18.432Z,102206.69
2023-02-12T20:53:47.019Z,102218.44
2023-02-12T20:56:16.356Z,102210.25
2023-02-12T20:58:44.115Z,102212.41
2023-02-12T21:01:13.816Z,102202.06
2023-02-12T21:03:41.686Z,102198.22
2023-02-12T21:06:10.088Z,102203.75
2023-02-12T21:08:40.399Z,102200.63
2023-02-12T21:11:10.024Z,102198.56
2023-02-12T21:13:37.743Z,102205.72
2023-02-12T21:16:07.436Z,102210.03
2023-02-12T21:18:34.871Z,102212.03
2023-02-12T21:21:04.830Z,102207.31
2023-02-12T21:23:33.753Z,102216.22
2023-02-12T21:26:05.282Z,102212.31
2023-02-12T21:28:33.637Z,102208.38
2023-02-12T21:31:07.685Z,102213.41
2023-02-12T21:33:35.889Z,102212.13
2023-02-12T21:36:05.804Z,102213.84
2023-02-12T21:38:34.307Z,102214.72
2023-02-12T21:41:12.296Z,102202.25
2023-02-12T21:43:41.141Z,102211.13
2023-02-12T21:46:09.444Z,102210.97
2023-02-12T21:48:37.689Z,102197.81
2023-02-12T21:51:06.779Z,102204.13
2023-02-12T21:53:34.022Z,102204.13
2023-02-12T21:56:03.618Z,102195.81
2023-02-12T21:58:32.495Z,102199.97
2023-02-12T22:01:06.832Z,102204.13
2023-02-12T22:03:34.089Z,102200.97
2023-02-12T22:06:02.168Z,102196.53
2023-02-12T22:08:30.751Z,102198.81
2023-02-12T22:10:58.435Z,102194.94
2023-02-12T22:13:25.963Z,102191.22
2023-02-12T22:15:55.458Z,102199.53
2023-02-12T22:18:22.781Z,102190.53
2023-02-12T22:20:50.072Z,102190.94
2023-02-12T22:23:17.401Z,102179.78
2023-02-12T22:25:44.684Z,102188.38
2023-02-12T22:28:11.864Z,102190.94
2023-02-12T22:30:39.537Z,102191.78
2023-02-12T22:33:08.739Z,102192.78
2023-02-12T22:35:35.948Z,102200.53
2023-02-12T22:38:03.557Z,102204.41
2023-02-12T22:40:30.686Z,102198.97
2023-02-12T22:42:58.670Z,102198.69
2023-02-12T22:45:26.179Z,102207.84
2023-02-12T22:47:53.361Z,102210.16
2023-02-12T22:50:21.591Z,102207.41
2023-02-12T22:52:49.192Z,102207.00
2023-02-12T22:55:16.633Z,102214.41
2023-02-12T22:57:44.036Z,102209.28
2023-02-12T23:00:12.525Z,102203.81
2023-02-12T23:02:39.785Z,102201.22
2023-02-12T23:05:07.305Z,102205.84
2023-02-12T23:07:36.715Z,102194.78
2023-02-12T23:10:04.186Z,102178.59
2023-02-12T23:12:31.566Z,102189.50
2023-02-12T23:14:59.307Z,102195.91
2023-02-12T23:17:26.634Z,102191.06
2023-02-12T23:19:53.994Z,102190.91
2023-02-12T23:22:21.358Z,102182.06
2023-02-12T23:24:51.081Z,102187.34
2023-02-12T23:27:18.358Z,102183.13
2023-02-12T23:29:45.973Z,102186.34
2023-02-12T23:32:13.432Z,102184.63
2023-02-12T23:34:40.626Z,102187.16
2023-02-12T23:37:08.455Z,102186.31
2023-02-12T23:39:36.583Z,102186.91
2023-02-12T23:42:06.148Z,102189.91
2023-02-12T23:44:33.442Z,102191.91
2023-02-12T23:47:00.670Z,102186.84
2023-02-12T23:49:28.773Z,102190.47
2023-02-12T23:51:56.389Z,102183.47
2023-02-12T23:54:23.578Z,102180.44
2023-02-12T23:56:50.807Z,102187.84
2023-02-12T23:59:20.155Z,102184.44
